Flight Track Log - Related Links

Times and Time Zones

All times are in EDT time to prevent confusion due to time zone crossing. See the ELY4 flight status page for this flight to view local times or setup timezone preferences in your user account.


Time Position Orientation Groundspeed Altitude Reporting Facility
EDT Latitude Longitude Course Direction KTS MPH feet Rate Location/Type
Thu 11:09:05 AM 40.6167 -73.7500 153° Southeast 170 196 1,200  Level New York TRACON
Thu 11:10:05 AM 40.5667 -73.7167 153° Southeast 195 224 2,000 1,233 Climbing New York TRACON
Thu 11:12:44 AM 40.5694 -73.5519 89° East 189 217 5,700 1,890 Climbing Boston Center
Thu 11:13:44 AM 40.5600 -73.4397 96° East 224 258 8,900 2,450 Climbing Boston Center
Thu 11:14:44 AM 40.5253 -73.3492 117° Southeast 247 284 10,600 1,350 Climbing Boston Center
Thu 11:15:44 AM 40.4825 -73.2286 115° Southeast 297 342 11,600 1,500 Climbing Boston Center
Thu 11:16:44 AM 40.4856 -73.0894 88° East 358 412 13,600 2,100 Climbing Boston Center
Thu 11:17:44 AM 40.5028 -72.9478 81° East 364 419 15,800 2,200 Climbing Boston Center
Thu 11:18:44 AM 40.5222 -72.7950 80° East 388 447 18,000 1,800 Climbing Boston Center
Thu 11:19:44 AM 40.5433 -72.6422 80° East 412 474 19,400 1,500 Climbing Boston Center
Thu 11:20:44 AM 40.5581 -72.4892 83° East 424 488 21,000 1,600 Climbing Boston Center
Thu 11:21:44 AM 40.5789 -72.3308 80° East 430 495 22,600 1,550 Climbing Boston Center
Thu 11:22:44 AM 40.5975 -72.1667 81° East 435 501 24,100 1,400 Climbing Boston Center
Thu 11:23:44 AM 40.6239 -72.0053 78° East 441 507 25,400 1,250 Climbing Boston Center
Thu 11:24:44 AM 40.6419 -71.8331 82° East 458 527 26,600 1,341 Climbing Boston Center
Thu 11:26:34 AM 40.6764 -71.5350 81° East 458 527 29,200 1,518 Climbing New York Center
Thu 11:27:34 AM 40.6961 -71.3683 81° East 463 533 30,900 893 Climbing New York Center
Thu 11:28:35 AM 40.7158 -71.2014 81° East 463 533 31,000 50 Climbing New York Center
Thu 11:29:35 AM 40.7331 -71.0372 82° East 463 533 31,000  Level New York Center
Thu 11:30:33 AM 40.7561 -70.8647 80° East 447 514 31,000  Level New York Center
Thu 11:31:33 AM 40.7731 -70.7006 82° East 447 514 31,000  Level New York Center
Thu 11:32:33 AM 40.7917 -70.5361 81° East 447 514 31,000  Level New York Center
Thu 11:33:34 AM 40.8078 -70.3769 82° East 447 514 31,000  Level New York Center
Thu 11:34:34 AM 40.8239 -70.2153 82° East 447 514 31,000 595 Level New York Center
Thu 11:35:35 AM 40.8419 -70.0533 82° East 447 514 32,200 1,000 Climbing New York Center
Thu 11:36:34 AM 40.8575 -69.8942 83° East 447 514 33,000 403 Climbing New York Center
Thu 11:37:34 AM 40.8731 -69.7375 82° East 447 514 33,000  Level New York Center
Thu 11:38:35 AM 40.8883 -69.5808 83° East 437 503 33,000  Level New York Center
Thu 11:39:35 AM 40.9033 -69.4269 83° East 427 491 33,000  Level New York Center
Thu 11:40:35 AM 40.9183 -69.2703 83° East 427 491 33,000  Level New York Center
Thu 11:41:33 AM 40.9331 -69.1217 82° East 427 491 33,000  Level New York Center
Thu 11:42:33 AM 40.9478 -68.9756 82° East 432 497 33,000  Level New York Center
Thu 11:43:34 AM 40.9642 -68.8186 82° East 427 491 33,000  Level New York Center
Thu 11:44:34 AM 40.9761 -68.6672 84° East 427 491 33,000  Level New York Center
Thu 11:45:35 AM 40.9900 -68.5103 83° East 427 491 33,000  Level New York Center
Thu 11:46:33 AM 41.0056 -68.3503 83° East 432 497 33,000  Level New York Center
Thu 11:47:33 AM 41.0192 -68.1958 83° East 432 497 33,000  Level New York Center
Thu 11:48:35 AM 41.0303 -68.0386 85° East 426 490 33,000  Level New York Center
Thu 11:49:35 AM 41.0456 -67.8814 83° East 426 490 33,000  Level New York Center
Thu 11:50:35 AM 41.0564 -67.7294 85° East 426 490 33,000  Level New York Center
Thu 11:51:33 AM 41.0711 -67.5719 83° East 426 490 33,000  Level New York Center
Thu 11:52:33 AM 41.0856 -67.4144 83° East 426 490 33,000  Level New York Center
Thu 11:53:34 AM 41.0958 -67.2625 85° East 426 490 33,000  Level New York Center
Thu 11:54:34 AM 41.1100 -67.1078 83° East 426 490 33,000  Level New York Center
Thu 11:55:17 AM 41.1167 -67.0000 78° East 443 510 33,000  Level New York Oceanic (ODAPS)
Thu 11:57:41 AM 41.1667 -66.6333 78° East 443 510 33,000  Level New York Oceanic (ODAPS)
Thu 11:59:25 AM 41.2167 -66.3667 79° East 453 521 33,000  Level New York Oceanic (ODAPS)
Thu 12:02:00 PM 41.2892 -65.8741 79° East 443 510 33,000  Level FlightAware Transoceanic
Thu 12:03:00 PM 41.3123 -65.6738 79° East 443 510 33,000  Level FlightAware Transoceanic
Thu 12:04:00 PM 41.3358 -65.5135 79° East 443 510 33,000  Level FlightAware Transoceanic
Thu 12:05:00 PM 41.3599 -65.3977 79° East 453 521 33,000  Level FlightAware Transoceanic
Thu 12:06:00 PM 41.3830 -65.2358 79° East 453 521 33,000  Level FlightAware Transoceanic
Thu 12:07:00 PM 41.4058 -65.0738 79° East 453 521 33,000  Level FlightAware Transoceanic
Thu 12:08:00 PM 41.4285 -64.9117 80° East 453 521 33,000  Level FlightAware Transoceanic
Thu 12:09:00 PM 41.4509 -64.7494 80° East 453 521 33,000  Level FlightAware Transoceanic
Thu 12:10:00 PM 41.4730 -64.5871 80° East 453 521 33,000  Level FlightAware Transoceanic
Thu 12:11:00 PM 41.4950 -64.4246 80° East 453 521 33,000  Level FlightAware Transoceanic
Thu 12:12:00 PM 41.5167 -64.2620 80° East 453 521 33,000  Level FlightAware Transoceanic
Thu 12:13:00 PM 41.5382 -64.0993 80° East 453 521 33,000  Level FlightAware Transoceanic
Thu 12:14:00 PM 41.5595 -63.9365 80° East 453 521 33,000  Level FlightAware Transoceanic
Thu 12:15:00 PM 41.5805 -63.7736 80° East 453 521 33,000  Level FlightAware Transoceanic
Thu 12:16:00 PM 41.6013 -63.6106 80° East 453 521 33,000  Level FlightAware Transoceanic
Thu 12:17:00 PM 41.6218 -63.4475 80° East 453 521 33,000  Level FlightAware Transoceanic
Thu 12:18:00 PM 41.6422 -63.2843 81° East 453 521 33,000  Level FlightAware Transoceanic
Thu 12:19:00 PM 41.6623 -63.1210 81° East 453 521 33,000  Level FlightAware Transoceanic
Thu 12:19:41 PM 41.6667 -63.0667 81° East 477 549 33,000  Level New York Oceanic (ODAPS)
Thu 12:20:00 PM 41.6822 -62.9576 81° East 453 521 33,000  Level FlightAware Transoceanic
Thu 12:21:00 PM 41.7018 -62.7941 81° East 453 521 33,000  Level FlightAware Transoceanic
Thu 12:22:00 PM 41.7212 -62.6305 81° East 453 521 33,000  Level FlightAware Transoceanic
Thu 12:23:00 PM 41.7404 -62.4668 81° East 453 521 33,000  Level FlightAware Transoceanic
Thu 12:24:00 PM 41.7593 -62.3029 81° East 453 521 33,000  Level FlightAware Transoceanic
Thu 12:25:00 PM 41.7732 -62.1681 81° East 477 549 33,000  Level FlightAware Transoceanic
Thu 12:26:00 PM 41.7936 -61.9880 81° East 477 549 33,000  Level FlightAware Transoceanic
Thu 12:27:00 PM 41.8138 -61.8078 82° East 477 549 33,000  Level FlightAware Transoceanic
Thu 12:28:00 PM 41.8337 -61.6275 82° East 477 549 33,000  Level FlightAware Transoceanic
Thu 12:29:00 PM 41.8533 -61.4471 82° East 477 549 33,000  Level FlightAware Transoceanic
Thu 12:30:00 PM 41.8726 -61.2666 82° East 477 549 33,000  Level FlightAware Transoceanic
Thu 12:31:00 PM 41.8917 -61.0860 82° East 477 549 33,000  Level FlightAware Transoceanic
Thu 12:32:00 PM 41.9104 -60.9052 82° East 477 549 33,000  Level FlightAware Transoceanic
Thu 12:33:00 PM 41.9289 -60.7244 82° East 477 549 33,000  Level FlightAware Transoceanic
Thu 12:34:00 PM 41.9471 -60.5434 82° East 477 549 33,000  Level FlightAware Transoceanic
Thu 12:35:00 PM 41.9650 -60.3624 82° East 477 549 33,000  Level FlightAware Transoceanic
Thu 12:36:00 PM 41.9827 -60.1813 83° East 477 549 33,000  Level FlightAware Transoceanic
Thu 12:37:00 PM 42.0000 -60.0000 71° East 477 549 33,000  Level FlightAware Transoceanic
Thu 12:37:54 PM 42.0000 -60.0000 71° East 497 572 33,000  Level New York Oceanic (ODAPS)
Thu 12:38:00 PM 42.0417 -59.8334 71° East 477 549 33,000  Level FlightAware Transoceanic
Thu 12:39:00 PM 42.0832 -59.6665 72° East 477 549 33,000  Level FlightAware Transoceanic
Thu 12:39:58 PM 42.1333 -59.4500 72° East 496 571 33,000  Level New York Oceanic (ODAPS)
Thu 12:40:00 PM 42.1244 -59.4994 72° East 477 549 33,000  Level FlightAware Transoceanic
Thu 12:41:00 PM 42.1654 -59.3321 72° East 477 549 33,000  Level FlightAware Transoceanic
Thu 12:42:00 PM 42.2061 -59.1646 72° East 477 549 33,000  Level FlightAware Transoceanic
Thu 12:43:00 PM 42.2466 -58.9969 72° East 477 549 33,000  Level FlightAware Transoceanic
Thu 12:44:00 PM 42.3021 -58.7648 72° East 497 572 33,000  Level FlightAware Transoceanic
Thu 12:45:00 PM 42.3442 -58.5874 72° East 497 572 33,000  Level FlightAware Transoceanic
Thu 12:46:00 PM 42.3878 -58.3901 72° East 496 571 33,000  Level FlightAware Transoceanic
Thu 12:47:00 PM 42.4292 -58.2126 73° East 496 571 33,000  Level FlightAware Transoceanic
Thu 12:48:00 PM 42.4704 -58.0349 73° East 496 571 33,000  Level FlightAware Transoceanic
Thu 12:49:00 PM 42.5113 -57.8569 73° East 496 571 33,000  Level FlightAware Transoceanic
Thu 12:50:00 PM 42.5520 -57.6788 73° East 496 571 33,000  Level FlightAware Transoceanic
Thu 12:51:00 PM 42.5923 -57.5004 73° East 496 571 33,000  Level FlightAware Transoceanic
Thu 12:52:00 PM 42.6324 -57.3217 73° East 496 571 33,000  Level FlightAware Transoceanic
Thu 12:53:00 PM 42.6722 -57.1428 73° East 496 571 33,000  Level FlightAware Transoceanic
Thu 12:54:00 PM 42.7117 -56.9637 73° East 496 571 33,000  Level FlightAware Transoceanic
Thu 12:55:00 PM 42.7509 -56.7844 73° East 496 571 33,000  Level FlightAware Transoceanic
Thu 12:56:00 PM 42.7899 -56.6049 74° East 496 571 33,000  Level FlightAware Transoceanic
Thu 12:57:00 PM 42.8286 -56.4251 74° East 496 571 33,000  Level FlightAware Transoceanic
Thu 12:58:00 PM 42.8670 -56.2451 74° East 496 571 33,000  Level FlightAware Transoceanic
Thu 12:59:00 PM 42.9051 -56.0648 74° East 496 571 33,000  Level FlightAware Transoceanic
Thu 01:00:00 PM 42.9429 -55.8844 74° East 496 571 33,000  Level FlightAware Transoceanic
Thu 01:00:14 PM 42.9167 -56.0500 74° East 470 541 33,000  Level New York Oceanic (ODAPS)
Thu 01:01:00 PM 42.9805 -55.7037 74° East 496 571 33,000  Level FlightAware Transoceanic
Thu 01:02:00 PM 43.0178 -55.5229 74° East 496 571 33,000  Level FlightAware Transoceanic
Thu 01:03:00 PM 43.0547 -55.3417 74° East 496 571 33,000  Level FlightAware Transoceanic
Thu 01:04:00 PM 43.0914 -55.1604 75° East 496 571 33,000  Level FlightAware Transoceanic
Thu 01:05:00 PM 43.1278 -54.9789 75° East 496 571 33,000  Level FlightAware Transoceanic
Thu 01:06:00 PM 43.1249 -55.0286 75° East 470 541 33,000  Level FlightAware Transoceanic
Thu 01:07:00 PM 43.1587 -54.8577 75° East 470 541 33,000  Level FlightAware Transoceanic
Thu 01:08:00 PM 43.1922 -54.6866 75° East 470 541 33,000  Level FlightAware Transoceanic
Thu 01:09:00 PM 43.2255 -54.5154 75° East 470 541 33,000  Level FlightAware Transoceanic
Thu 01:10:00 PM 43.2586 -54.3439 75° East 470 541 33,000  Level FlightAware Transoceanic
Thu 01:11:00 PM 43.2914 -54.1723 75° East 470 541 33,000  Level FlightAware Transoceanic
Thu 01:12:00 PM 43.3239 -54.0004 75° East 470 541 33,000  Level FlightAware Transoceanic
Thu 01:13:00 PM 43.3562 -53.8284 76° East 470 541 33,000  Level FlightAware Transoceanic
Thu 01:14:00 PM 43.3882 -53.6562 76° East 470 541 33,000  Level FlightAware Transoceanic
Thu 01:15:00 PM 43.4200 -53.4838 76° East 470 541 33,000  Level FlightAware Transoceanic
Thu 01:16:00 PM 43.4515 -53.3113 76° East 470 541 33,000  Level FlightAware Transoceanic
Thu 01:17:00 PM 43.4827 -53.1386 76° East 470 541 33,000  Level FlightAware Transoceanic
Thu 01:18:00 PM 43.5137 -52.9656 76° East 470 541 33,000  Level FlightAware Transoceanic
Thu 01:19:00 PM 43.5444 -52.7925 76° East 470 541 33,000  Level FlightAware Transoceanic
Thu 01:20:00 PM 43.5748 -52.6193 76° East 470 541 33,000 1,079 Level FlightAware Transoceanic
Thu 01:20:29 PM 43.5667 -52.6833 76° East 457 526 34,600  Climbing New York Oceanic (ODAPS)
Thu 01:21:00 PM 43.6050 -52.4459 77° East 470 541 33,000 -1,055 Descending FlightAware Transoceanic
Thu 01:22:00 PM 43.6350 -52.2722 77° East 470 541 33,000  Level FlightAware Transoceanic
Thu 01:23:00 PM 43.6647 -52.0984 77° East 470 541 33,000  Level FlightAware Transoceanic
Thu 01:24:00 PM 43.6941 -51.9245 77° East 470 541 33,000  Level FlightAware Transoceanic
Thu 01:25:00 PM 43.7232 -51.7504 77° East 470 541 33,000 800 Level FlightAware Transoceanic
Thu 01:26:00 PM 43.7365 -51.6817 77° East 457 526 34,600 800 Climbing FlightAware Transoceanic
Thu 01:27:00 PM 43.7640 -51.5142 77° East 457 526 34,600  Level FlightAware Transoceanic
Thu 01:28:00 PM 43.7912 -51.3465 77° East 457 526 34,600  Level FlightAware Transoceanic
Thu 01:29:00 PM 43.8181 -51.1787 78° East 457 526 34,600  Level FlightAware Transoceanic
Thu 01:30:00 PM 43.8449 -51.0108 78° East 457 526 34,600  Level FlightAware Transoceanic
Thu 01:31:00 PM 43.8713 -50.8427 78° East 457 526 34,600  Level FlightAware Transoceanic
Thu 01:32:00 PM 43.8976 -50.6744 78° East 457 526 34,600  Level FlightAware Transoceanic
Thu 01:33:00 PM 43.9235 -50.5061 78° East 457 526 34,600  Level FlightAware Transoceanic
Thu 01:34:00 PM 43.9493 -50.3375 78° East 457 526 34,600  Level FlightAware Transoceanic
Thu 01:35:00 PM 43.9748 -50.1688 78° East 457 526 34,600  Level FlightAware Transoceanic
Thu 01:36:00 PM 44.0000 -50.0000 63° Northeast 457 526 34,600 255 Level FlightAware Transoceanic
Thu 01:36:34 PM 44.0000 -50.0000 63° Northeast 479 551 35,000  Climbing New York Oceanic (ODAPS)
Thu 01:37:00 PM 44.0589 -49.8367 63° Northeast 457 526 34,600 -279 Descending FlightAware Transoceanic
Thu 01:38:00 PM 44.1175 -49.6731 64° Northeast 457 526 34,600  Level FlightAware Transoceanic
Thu 01:39:00 PM 44.1759 -49.5092 64° Northeast 457 526 34,600  Level FlightAware Transoceanic
Thu 01:40:00 PM 44.2341 -49.3449 64° Northeast 457 526 34,600 229 Level FlightAware Transoceanic
Thu 01:40:45 PM 44.2500 -49.3000 64° Northeast 481 554 35,000  Climbing New York Oceanic (ODAPS)
Thu 01:41:00 PM 44.2920 -49.1804 64° Northeast 457 526 34,600  Descending FlightAware Transoceanic
Thu 01:42:00 PM 44.3497 -49.0155 64° Northeast 479 551 35,000 200 Climbing FlightAware Transoceanic
Thu 01:43:00 PM 44.4072 -48.8503 64° Northeast 479 551 35,000  Level FlightAware Transoceanic
Thu 01:44:00 PM 44.4644 -48.6847 64° Northeast 479 551 35,000  Level FlightAware Transoceanic
Thu 01:45:00 PM 44.5213 -48.5188 64° Northeast 479 551 35,000  Level FlightAware Transoceanic
Thu 01:46:00 PM 44.5781 -48.3526 64° Northeast 479 551 35,000  Level FlightAware Transoceanic
Thu 01:47:00 PM 44.5983 -48.2935 65° Northeast 481 554 35,000  Level FlightAware Transoceanic
Thu 01:48:00 PM 44.6554 -48.1245 65° Northeast 481 554 35,000  Level FlightAware Transoceanic
Thu 01:49:00 PM 44.7124 -47.9553 65° Northeast 481 554 35,000  Level FlightAware Transoceanic
Thu 01:50:00 PM 44.7691 -47.7857 65° Northeast 481 554 35,000  Level FlightAware Transoceanic
Thu 01:51:00 PM 44.8255 -47.6158 65° Northeast 481 554 35,000  Level FlightAware Transoceanic
Thu 01:52:00 PM 44.8817 -47.4455 65° Northeast 481 554 35,000  Level FlightAware Transoceanic
Thu 01:53:00 PM 44.9376 -47.2749 65° Northeast 481 554 35,000  Level FlightAware Transoceanic
Thu 01:54:00 PM 44.9933 -47.1040 65° Northeast 481 554 35,000  Level FlightAware Transoceanic
Thu 01:55:00 PM 45.0487 -46.9328 65° Northeast 481 554 35,000  Level FlightAware Transoceanic
Thu 01:56:00 PM 45.1038 -46.7612 66° East 481 554 35,000  Level FlightAware Transoceanic
Thu 01:57:00 PM 45.1587 -46.5893 66° East 481 554 35,000  Level FlightAware Transoceanic
Thu 01:58:00 PM 45.2134 -46.4170 66° East 481 554 35,000  Level FlightAware Transoceanic
Thu 01:59:00 PM 45.2677 -46.2445 66° East 481 554 35,000  Level FlightAware Transoceanic
Thu 02:00:00 PM 45.3219 -46.0716 66° East 481 554 35,000  Level FlightAware Transoceanic
Thu 02:01:00 PM 45.3757 -45.8983 66° East 481 554 35,000  Level FlightAware Transoceanic
Thu 02:02:00 PM 45.4293 -45.7248 66° East 481 554 35,000  Level FlightAware Transoceanic
Thu 02:03:00 PM 45.4827 -45.5509 66° East 481 554 35,000  Level FlightAware Transoceanic
Thu 02:04:00 PM 45.5357 -45.3767 67° East 481 554 35,000  Level FlightAware Transoceanic
Thu 02:05:00 PM 45.5885 -45.2021 67° East 481 554 35,000  Level FlightAware Transoceanic
Thu 02:06:00 PM 45.6411 -45.0272 67° East 481 554 35,000  Level FlightAware Transoceanic
Thu 02:07:00 PM 45.6933 -44.8521 67° East 481 554 35,000  Level FlightAware Transoceanic
Thu 02:08:00 PM 45.7453 -44.6765 67° East 481 554 35,000  Level FlightAware Transoceanic
Thu 02:09:00 PM 45.7971 -44.5007 67° East 481 554 35,000  Level FlightAware Transoceanic
Thu 02:10:00 PM 45.8485 -44.3245 67° East 481 554 35,000  Level FlightAware Transoceanic
Thu 02:11:00 PM 45.8997 -44.1480 67° East 481 554 35,000  Level FlightAware Transoceanic
Thu 02:12:00 PM 45.9506 -43.9711 68° East 481 554 35,000  Level FlightAware Transoceanic
Thu 02:13:00 PM 46.0013 -43.7940 68° East 481 554 35,000  Level FlightAware Transoceanic
Thu 02:14:00 PM 46.0517 -43.6165 68° East 481 554 35,000  Level FlightAware Transoceanic
Thu 02:15:00 PM 46.1017 -43.4387 68° East 481 554 35,000  Level FlightAware Transoceanic
Thu 02:16:00 PM 46.1516 -43.2606 68° East 481 554 35,000  Level FlightAware Transoceanic
Thu 02:17:00 PM 46.2011 -43.0821 68° East 481 554 35,000  Level FlightAware Transoceanic
Thu 02:18:00 PM 46.2504 -42.9034 68° East 481 554 35,000  Level FlightAware Transoceanic
Thu 02:19:00 PM 46.2994 -42.7243 68° East 481 554 35,000  Level FlightAware Transoceanic
Thu 02:20:00 PM 46.3481 -42.5449 69° East 481 554 35,000  Level FlightAware Transoceanic
Thu 02:21:00 PM 46.3965 -42.3651 69° East 481 554 35,000  Level FlightAware Transoceanic
Thu 02:22:00 PM 46.4446 -42.1851 69° East 481 554 35,000  Level FlightAware Transoceanic
Thu 02:23:00 PM 46.4925 -42.0047 69° East 481 554 35,000  Level FlightAware Transoceanic
Thu 02:24:00 PM 46.5401 -41.8240 69° East 481 554 35,000  Level FlightAware Transoceanic
Thu 02:25:00 PM 46.5874 -41.6431 69° East 481 554 35,000  Level FlightAware Transoceanic
Thu 02:26:00 PM 46.6344 -41.4617 69° East 481 554 35,000  Level FlightAware Transoceanic
Thu 02:27:00 PM 46.6811 -41.2801 70° East 481 554 35,000  Level FlightAware Transoceanic
Thu 02:28:00 PM 46.7275 -41.0982 70° East 481 554 35,000  Level FlightAware Transoceanic
Thu 02:29:00 PM 46.7737 -40.9159 70° East 481 554 35,000  Level FlightAware Transoceanic
Thu 02:30:00 PM 46.8195 -40.7333 70° East 481 554 35,000  Level FlightAware Transoceanic
Thu 02:31:00 PM 46.8651 -40.5505 70° East 481 554 35,000  Level FlightAware Transoceanic
Thu 02:32:00 PM 46.9103 -40.3673 70° East 481 554 35,000  Level FlightAware Transoceanic
Thu 02:33:00 PM 46.9553 -40.1838 70° East 481 554 35,000  Level FlightAware Transoceanic
Thu 02:34:00 PM 47.0000 -40.0000 78° East 481 554 35,000  Level FlightAware Transoceanic
Thu 02:35:00 PM 47.0296 -39.7960 78° East 481 554 35,000  Level FlightAware Transoceanic
Thu 02:36:00 PM 47.0588 -39.5919 78° East 481 554 35,000  Level FlightAware Transoceanic
Thu 02:37:00 PM 47.0877 -39.3874 78° East 481 554 35,000  Level FlightAware Transoceanic
Thu 02:38:00 PM 47.1162 -39.1828 79° East 481 554 35,000  Level FlightAware Transoceanic
Thu 02:39:00 PM 47.1443 -38.9780 79° East 481 554 35,000  Level FlightAware Transoceanic
Thu 02:40:00 PM 47.1721 -38.7729 79° East 481 554 35,000  Level FlightAware Transoceanic
Thu 02:41:00 PM 47.1995 -38.5676 79° East 481 554 35,000  Level FlightAware Transoceanic
Thu 02:42:00 PM 47.2266 -38.3621 79° East 481 554 35,000  Level FlightAware Transoceanic
Thu 02:43:00 PM 47.2533 -38.1564 79° East 481 554 35,000  Level FlightAware Transoceanic
Thu 02:44:00 PM 47.2796 -37.9506 79° East 481 554 35,000  Level FlightAware Transoceanic
Thu 02:45:00 PM 47.3055 -37.7444 80° East 481 554 35,000  Level FlightAware Transoceanic
Thu 02:46:00 PM 47.3311 -37.5381 80° East 481 554 35,000  Level FlightAware Transoceanic
Thu 02:47:00 PM 47.3563 -37.3316 80° East 481 554 35,000  Level FlightAware Transoceanic
Thu 02:48:00 PM 47.3811 -37.1249 80° East 481 554 35,000  Level FlightAware Transoceanic
Thu 02:49:00 PM 47.4055 -36.9180 80° East 481 554 35,000  Level FlightAware Transoceanic
Thu 02:50:00 PM 47.4296 -36.7110 80° East 481 554 35,000  Level FlightAware Transoceanic
Thu 02:51:00 PM 47.4533 -36.5037 80° East 481 554 35,000  Level FlightAware Transoceanic
Thu 02:52:00 PM 47.4767 -36.2962 81° East 481 554 35,000  Level FlightAware Transoceanic
Thu 02:53:00 PM 47.4996 -36.0886 81° East 481 554 35,000  Level FlightAware Transoceanic
Thu 02:54:00 PM 47.5222 -35.8808 81° East 481 554 35,000  Level FlightAware Transoceanic
Thu 02:55:00 PM 47.5444 -35.6728 81° East 481 554 35,000  Level FlightAware Transoceanic
Thu 02:56:00 PM 47.5662 -35.4646 81° East 481 554 35,000  Level FlightAware Transoceanic
Thu 02:57:00 PM 47.5877 -35.2562 81° East 481 554 35,000  Level FlightAware Transoceanic
Thu 02:58:00 PM 47.6088 -35.0477 82° East 481 554 35,000  Level FlightAware Transoceanic
Thu 02:59:00 PM 47.6295 -34.8391 82° East 481 554 35,000  Level FlightAware Transoceanic
Thu 03:00:00 PM 47.6498 -34.6302 82° East 481 554 35,000  Level FlightAware Transoceanic
Thu 03:01:00 PM 47.6697 -34.4212 82° East 481 554 35,000  Level FlightAware Transoceanic
Thu 03:02:00 PM 47.6893 -34.2121 82° East 481 554 35,000  Level FlightAware Transoceanic
Thu 03:03:00 PM 47.7085 -34.0027 82° East 481 554 35,000  Level FlightAware Transoceanic
Thu 03:04:00 PM 47.7273 -33.7933 82° East 481 554 35,000  Level FlightAware Transoceanic
Thu 03:05:00 PM 47.7457 -33.5836 83° East 481 554 35,000  Level FlightAware Transoceanic
Thu 03:06:00 PM 47.7637 -33.3739 83° East 481 554 35,000  Level FlightAware Transoceanic
Thu 03:07:00 PM 47.7814 -33.1640 83° East 481 554 35,000  Level FlightAware Transoceanic
Thu 03:08:00 PM 47.7987 -32.9539 83° East 481 554 35,000  Level FlightAware Transoceanic
Thu 03:09:00 PM 47.8156 -32.7437 83° East 481 554 35,000  Level FlightAware Transoceanic
Thu 03:10:00 PM 47.8321 -32.5334 83° East 481 554 35,000  Level FlightAware Transoceanic
Thu 03:11:00 PM 47.8482 -32.3229 84° East 481 554 35,000  Level FlightAware Transoceanic
Thu 03:12:00 PM 47.8639 -32.1123 84° East 481 554 35,000  Level FlightAware Transoceanic
Thu 03:13:00 PM 47.8793 -31.9016 84° East 481 554 35,000  Level FlightAware Transoceanic
Thu 03:14:00 PM 47.8942 -31.6908 84° East 481 554 35,000  Level FlightAware Transoceanic
Thu 03:15:00 PM 47.9088 -31.4798 84° East 481 554 35,000  Level FlightAware Transoceanic
Thu 03:16:00 PM 47.9230 -31.2687 84° East 481 554 35,000  Level FlightAware Transoceanic
Thu 03:17:00 PM 47.9368 -31.0576 85° East 481 554 35,000  Level FlightAware Transoceanic
Thu 03:18:00 PM 47.9502 -30.8463 85° East 481 554 35,000  Level FlightAware Transoceanic
Thu 03:19:00 PM 47.9632 -30.6348 85° East 481 554 35,000  Level FlightAware Transoceanic
Thu 03:20:00 PM 47.9759 -30.4233 85° East 481 554 35,000  Level FlightAware Transoceanic
Thu 03:21:00 PM 47.9881 -30.2117 85° East 481 554 35,000  Level FlightAware Transoceanic
Thu 03:22:00 PM 47.9992 -30.0147 85° East  Level FlightAware Approximate
Thu 03:23:00 PM 48.0099 -29.8175 85° East  Level FlightAware Approximate
Thu 03:24:00 PM 48.0069 -29.8319 86° East  Level FlightAware Approximate
Thu 03:25:00 PM 48.0146 -29.6344 87° East  Level FlightAware Approximate
Thu 03:26:00 PM 48.0220 -29.4369 87° East  Level FlightAware Approximate
Thu 03:27:00 PM 48.0291 -29.2393 87° East  Level FlightAware Approximate
Thu 03:28:00 PM 48.0358 -29.0417 87° East  Level FlightAware Approximate
Thu 03:29:00 PM 48.0422 -28.8440 87° East  Level FlightAware Approximate
Thu 03:30:00 PM 48.0483 -28.6462 87° East  Level FlightAware Approximate
Thu 03:31:00 PM 48.0540 -28.4484 87° East  Level FlightAware Approximate
Thu 03:32:00 PM 48.0594 -28.2506 88° East  Level FlightAware Approximate
Thu 03:33:00 PM 48.0644 -28.0527 88° East  Level FlightAware Approximate
Thu 03:34:00 PM 48.0691 -27.8548 88° East  Level FlightAware Approximate
Thu 03:35:00 PM 48.0735 -27.6569 88° East  Level FlightAware Approximate
Thu 03:36:00 PM 48.0775 -27.4589 88° East  Level FlightAware Approximate
Thu 03:37:00 PM 48.0812 -27.2609 88° East  Level FlightAware Approximate
Thu 03:38:00 PM 48.0845 -27.0629 88° East  Level FlightAware Approximate
Thu 03:39:00 PM 48.0875 -26.8648 89° East  Level FlightAware Approximate
Thu 03:40:00 PM 48.0901 -26.6667 89° East  Level FlightAware Approximate
Thu 03:41:00 PM 48.0924 -26.4686 89° East  Level FlightAware Approximate
Thu 03:42:00 PM 48.0944 -26.2705 89° East  Level FlightAware Approximate
Thu 03:43:00 PM 48.0961 -26.0724 89° East  Level FlightAware Approximate
Thu 03:44:00 PM 48.0973 -25.8742 89° East  Level FlightAware Approximate
Thu 03:45:00 PM 48.0983 -25.6761 90° East  Level FlightAware Approximate
Thu 03:46:00 PM 48.0989 -25.4779 90° East  Level FlightAware Approximate
Thu 03:47:00 PM 48.0992 -25.2798 90° East  Level FlightAware Approximate
Thu 03:48:00 PM 48.0991 -25.0816 90° East  Level FlightAware Approximate
Thu 03:49:00 PM 48.0987 -24.8834 90° East  Level FlightAware Approximate
Thu 03:50:00 PM 48.0979 -24.6853 90° East  Level FlightAware Approximate
Thu 03:51:00 PM 48.0969 -24.4872 90° East  Level FlightAware Approximate
Thu 03:52:00 PM 48.0954 -24.2890 91° East  Level FlightAware Approximate
Thu 03:53:00 PM 48.0937 -24.0909 91° East  Level FlightAware Approximate
Thu 03:54:00 PM 48.0915 -23.8928 91° East  Level FlightAware Approximate
Thu 03:55:00 PM 48.0891 -23.6947 91° East  Level FlightAware Approximate
Thu 03:56:00 PM 48.0863 -23.4966 91° East  Level FlightAware Approximate
Thu 03:57:00 PM 48.0832 -23.2986 91° East  Level FlightAware Approximate
Thu 03:58:00 PM 48.0797 -23.1005 91° East  Level FlightAware Approximate
Thu 03:59:00 PM 48.0759 -22.9026 92° East  Level FlightAware Approximate
Thu 04:00:00 PM 48.0717 -22.7046 92° East  Level FlightAware Approximate
Thu 04:01:00 PM 48.0672 -22.5067 92° East  Level FlightAware Approximate
Thu 04:02:00 PM 48.0637 -22.3087 91° East  Level FlightAware Approximate
Thu 04:03:00 PM 48.0601 -22.1108 92° East  Level FlightAware Approximate
Thu 04:04:00 PM 48.0561 -21.9129 92° East  Level FlightAware Approximate
Thu 04:05:00 PM 48.0518 -21.7150 92° East  Level FlightAware Approximate
Thu 04:06:00 PM 48.0471 -21.5172 92° East  Level FlightAware Approximate
Thu 04:07:00 PM 48.0421 -21.3193 92° East  Level FlightAware Approximate
Thu 04:08:00 PM 48.0368 -21.1216 92° East  Level FlightAware Approximate
Thu 04:09:00 PM 48.0311 -20.9238 92° East  Level FlightAware Approximate
Thu 04:10:00 PM 48.0251 -20.7262 93° East  Level FlightAware Approximate
Thu 04:11:00 PM 48.0187 -20.5285 93° East  Level FlightAware Approximate
Thu 04:12:00 PM 48.0120 -20.3310 93° East  Level FlightAware Approximate
Thu 04:13:00 PM 48.0050 -20.1334 93° East  Level FlightAware Approximate
Thu 04:14:00 PM 48.0014 -19.9359 88° East  Level FlightAware Approximate
Thu 04:15:00 PM 48.0054 -19.7382 88° East  Level FlightAware Approximate
Thu 04:16:00 PM 48.0090 -19.5404 88° East  Level FlightAware Approximate
Thu 04:17:00 PM 48.0124 -19.3427 88° East  Level FlightAware Approximate
Thu 04:18:00 PM 48.0154 -19.1449 89° East  Level FlightAware Approximate
Thu 04:19:00 PM 48.0180 -18.9471 89° East  Level FlightAware Approximate
Thu 04:20:00 PM 48.0204 -18.7493 89° East  Level FlightAware Approximate
Thu 04:21:00 PM 48.0223 -18.5515 89° East  Level FlightAware Approximate
Thu 04:22:00 PM 48.0240 -18.3536 89° East  Level FlightAware Approximate
Thu 04:23:00 PM 48.0253 -18.1557 89° East  Level FlightAware Approximate
Thu 04:24:00 PM 48.0262 -17.9579 90° East  Level FlightAware Approximate
Thu 04:25:00 PM 48.0269 -17.7600 90° East  Level FlightAware Approximate
Thu 04:26:00 PM 48.0271 -17.5621 90° East  Level FlightAware Approximate
Thu 04:27:00 PM 48.0271 -17.3642 90° East  Level FlightAware Approximate
Thu 04:28:00 PM 48.0267 -17.1663 90° East  Level FlightAware Approximate
Thu 04:29:00 PM 48.0259 -16.9685 90° East  Level FlightAware Approximate
Thu 04:30:00 PM 48.0248 -16.7706 90° East  Level FlightAware Approximate
Thu 04:31:00 PM 48.0234 -16.5727 91° East  Level FlightAware Approximate
Thu 04:32:00 PM 48.0217 -16.3749 91° East  Level FlightAware Approximate
Thu 04:33:00 PM 48.0196 -16.1771 91° East  Level FlightAware Approximate
Thu 04:34:00 PM 48.0171 -15.9792 91° East  Level FlightAware Approximate
Thu 04:35:00 PM 48.0143 -15.7815 91° East  Level FlightAware Approximate
Thu 04:36:00 PM 48.0112 -15.5837 91° East  Level FlightAware Approximate
Thu 04:37:00 PM 48.0077 -15.3859 91° East  Level FlightAware Approximate
Thu 04:38:00 PM 48.0039 -15.1882 92° East  Level FlightAware Approximate
Thu 04:39:00 PM 47.9988 -14.9907 101° East  Level FlightAware Approximate
Thu 04:40:00 PM 47.9734 -14.7967 101° East  Level FlightAware Approximate
Thu 04:41:00 PM 47.9476 -14.6028 101° East  Level FlightAware Approximate
Thu 04:42:00 PM 47.9215 -14.4092 101° East  Level FlightAware Approximate
Thu 04:43:00 PM 47.8951 -14.2157 101° East  Level FlightAware Approximate
Thu 04:44:00 PM 47.8683 -14.0225 102° East  Level FlightAware Approximate
Thu 04:45:00 PM 47.8412 -13.8294 102° East  Level FlightAware Approximate
Thu 04:46:00 PM 47.8139 -13.6366 102° East  Level FlightAware Approximate
Thu 04:47:00 PM 47.7861 -13.4439 102° East  Level FlightAware Approximate
Thu 04:48:00 PM 47.7581 -13.2515 102° East  Level FlightAware Approximate
Thu 04:49:00 PM 47.7297 -13.0593 102° East  Level FlightAware Approximate
Thu 04:50:00 PM 47.7010 -12.8672 102° East  Level FlightAware Approximate
Thu 04:51:00 PM 47.6721 -12.6754 103° East  Level FlightAware Approximate
Thu 04:52:00 PM 47.6427 -12.4838 103° East  Level FlightAware Approximate
Thu 04:53:00 PM 47.6131 -12.2925 103° East  Level FlightAware Approximate
Thu 04:54:00 PM 47.5831 -12.1013 103° East  Level FlightAware Approximate
Thu 04:55:00 PM 47.5529 -11.9104 103° East  Level FlightAware Approximate
Thu 04:56:00 PM 47.5223 -11.7196 103° East  Level FlightAware Approximate
Thu 04:57:00 PM 47.4914 -11.5291 103° East  Level FlightAware Approximate
Thu 04:58:00 PM 47.4602 -11.3389 104° East  Level FlightAware Approximate
Thu 04:59:00 PM 47.4286 -11.1488 104° East  Level FlightAware Approximate
Thu 05:00:00 PM 47.3968 -10.9590 104° East  Level FlightAware Approximate
Thu 05:01:00 PM 47.3646 -10.7694 104° East  Level FlightAware Approximate
Thu 05:02:00 PM 47.3321 -10.5801 104° East  Level FlightAware Approximate
Thu 05:03:00 PM 47.2994 -10.3910 104° East  Level FlightAware Approximate
Thu 05:04:00 PM 47.2663 -10.2021 104° East  Level FlightAware Approximate
Thu 05:05:00 PM 47.2328 -10.0134 105° East  Level FlightAware Approximate
Thu 05:06:00 PM 47.1991 -9.8250 105° East  Level FlightAware Approximate
Thu 05:07:00 PM 47.1651 -9.6369 105° East  Level FlightAware Approximate
Thu 05:08:00 PM 47.1308 -9.4489 105° East  Level FlightAware Approximate
Thu 05:09:00 PM 47.0961 -9.2613 105° East  Level FlightAware Approximate
Thu 05:10:00 PM 47.0612 -9.0738 105° East  Level FlightAware Approximate
Thu 05:11:00 PM 47.0260 -8.8867 105° East  Level FlightAware Approximate
Thu 05:12:00 PM 47.0002 -8.6978 90° East  Level FlightAware Approximate
Thu 05:13:00 PM 47.0005 -8.5037 90° East  Level FlightAware Approximate
Thu 05:14:00 PM 47.0006 -8.3097 90° East  Level FlightAware Approximate
Thu 05:15:00 PM 47.0003 -8.1156 90° East  Level FlightAware Approximate
Thu 05:16:00 PM 46.9929 -7.9223 98° East  Level FlightAware Approximate
Thu 05:17:00 PM 46.9750 -7.7301 98° East  Level FlightAware Approximate
Thu 05:18:00 PM 46.9568 -7.5380 98° East  Level FlightAware Approximate
Thu 05:19:00 PM 46.9383 -7.3460 98° East  Level FlightAware Approximate
Thu 05:20:00 PM 46.9195 -7.1542 98° East  Level FlightAware Approximate
Thu 05:21:00 PM 46.9003 -6.9625 98° East  Level FlightAware Approximate
Thu 05:22:00 PM 46.8809 -6.7710 98° East  Level FlightAware Approximate
Thu 05:23:00 PM 46.8611 -6.5796 99° East  Level FlightAware Approximate
Thu 05:24:00 PM 46.8410 -6.3883 99° East  Level FlightAware Approximate
Thu 05:25:00 PM 46.8205 -6.1972 99° East  Level FlightAware Approximate
Thu 05:26:00 PM 46.7998 -6.0062 99° East  Level FlightAware Approximate
Thu 05:27:00 PM 46.7787 -5.8154 99° East  Level FlightAware Approximate
Thu 05:28:00 PM 46.7573 -5.6248 99° East  Level FlightAware Approximate
Thu 05:29:00 PM 46.7356 -5.4342 99° East  Level FlightAware Approximate
Thu 05:30:00 PM 46.7136 -5.2439 100° East  Level FlightAware Approximate
Thu 05:31:00 PM 46.6913 -5.0537 100° East  Level FlightAware Approximate
Thu 05:32:00 PM 46.6687 -4.8636 100° East  Level FlightAware Approximate
Thu 05:33:00 PM 46.6457 -4.6737 100° East  Level FlightAware Approximate
Thu 05:34:00 PM 46.6224 -4.4840 100° East  Level FlightAware Approximate
Thu 05:35:00 PM 46.5988 -4.2944 100° East  Level FlightAware Approximate
Thu 05:36:00 PM 46.5749 -4.1050 100° East  Level FlightAware Approximate
Thu 05:37:00 PM 46.5507 -3.9158 100° East  Level FlightAware Approximate
Thu 05:38:00 PM 46.5262 -3.7267 101° East  Level FlightAware Approximate
Thu 05:39:00 PM 46.5014 -3.5379 101° East  Level FlightAware Approximate
Thu 05:40:00 PM 46.4762 -3.3491 101° East  Level FlightAware Approximate
Thu 05:41:00 PM 46.4508 -3.1606 101° East  Level FlightAware Approximate
Thu 05:42:00 PM 46.4250 -2.9722 101° East  Level FlightAware Approximate
Thu 05:43:00 PM 46.3990 -2.7841 101° East  Level FlightAware Approximate
Thu 05:44:00 PM 46.3726 -2.5961 101° East  Level FlightAware Approximate
Thu 05:45:00 PM 46.3459 -2.4083 102° East  Level FlightAware Approximate
Thu 05:46:00 PM 46.3189 -2.2206 102° East  Level FlightAware Approximate
Thu 05:47:00 PM 46.2916 -2.0332 102° East  Level FlightAware Approximate
Thu 05:48:00 PM 46.2640 -1.8459 102° East  Level FlightAware Approximate
Thu 05:49:00 PM 46.2361 -1.6588 102° East  Level FlightAware Approximate
Thu 05:50:00 PM 46.2079 -1.4720 102° East  Level FlightAware Approximate
Thu 05:51:00 PM 46.1793 -1.2853 102° East  Level FlightAware Approximate
Thu 05:52:00 PM 46.1505 -1.0988 103° East  Level FlightAware Approximate
Thu 05:53:00 PM 46.1214 -0.9125 103° East  Level FlightAware Approximate
Thu 05:54:00 PM 46.0919 -0.7264 103° East  Level FlightAware Approximate
Thu 05:55:00 PM 46.0622 -0.5405 103° East  Level FlightAware Approximate
Thu 05:56:00 PM 46.0322 -0.3548 103° East  Level FlightAware Approximate
Thu 05:57:00 PM 46.0019 -0.1693 103° East  Level FlightAware Approximate
Thu 05:58:00 PM 45.9712 0.0160 103° East  Level FlightAware Approximate
Thu 05:59:00 PM 45.9403 0.2011 103° East  Level FlightAware Approximate
Thu 06:00:00 PM 45.9091 0.3860 104° East  Level FlightAware Approximate
Thu 06:01:00 PM 45.8775 0.5706 104° East  Level FlightAware Approximate
Thu 06:02:00 PM 45.8457 0.7551 104° East  Level FlightAware Approximate
Thu 06:03:00 PM 45.8136 0.9393 104° East  Level FlightAware Approximate
Thu 06:04:00 PM 45.7860 1.1249 100° East  Level FlightAware Approximate
Thu 06:05:00 PM 45.7615 1.3113 101° East  Level FlightAware Approximate
Thu 06:06:00 PM 45.7368 1.4977 101° East  Level FlightAware Approximate
Thu 06:07:00 PM 45.7117 1.6838 101° East  Level FlightAware Approximate
Thu 06:08:00 PM 45.6864 1.8698 101° East  Level FlightAware Approximate
Thu 06:09:00 PM 45.6607 2.0556 101° East  Level FlightAware Approximate
Thu 06:10:00 PM 45.6348 2.2412 101° East  Level FlightAware Approximate
Thu 06:11:00 PM 45.6085 2.4267 101° East  Level FlightAware Approximate
Thu 06:12:00 PM 45.5820 2.6119 102° East  Level FlightAware Approximate
Thu 06:13:00 PM 45.5551 2.7970 102° East  Level FlightAware Approximate
Thu 06:14:00 PM 45.5280 2.9820 102° East  Level FlightAware Approximate
Thu 06:15:00 PM 45.5005 3.1667 102° East  Level FlightAware Approximate
Thu 06:16:00 PM 45.4728 3.3513 102° East  Level FlightAware Approximate
Thu 06:17:00 PM 45.4448 3.5357 102° East  Level FlightAware Approximate
Thu 06:18:00 PM 45.4164 3.7199 102° East  Level FlightAware Approximate
Thu 06:19:00 PM 45.3878 3.9039 102° East  Level FlightAware Approximate
Thu 06:20:00 PM 45.3589 4.0877 103° East  Level FlightAware Approximate
Thu 06:21:00 PM 45.3296 4.2714 103° East  Level FlightAware Approximate
Thu 06:22:00 PM 45.3001 4.4548 103° East  Level FlightAware Approximate
Thu 06:23:00 PM 45.2703 4.6381 103° East  Level FlightAware Approximate
Thu 06:24:00 PM 45.2402 4.8212 103° East  Level FlightAware Approximate
Thu 06:25:00 PM 45.2098 5.0040 103° East  Level FlightAware Approximate
Thu 06:26:00 PM 45.1791 5.1867 103° East  Level FlightAware Approximate
Thu 06:27:00 PM 45.1481 5.3692 103° East  Level FlightAware Approximate
Thu 06:28:00 PM 45.1169 5.5515 104° East  Level FlightAware Approximate
Thu 06:29:00 PM 45.0853 5.7336 104° East  Level FlightAware Approximate
Thu 06:30:00 PM 45.0535 5.9154 104° East  Level FlightAware Approximate
Thu 06:31:00 PM 45.0213 6.0971 104° East  Level FlightAware Approximate
Thu 06:32:00 PM 44.9887 6.2785 104° East  Level FlightAware Approximate
Thu 06:33:00 PM 44.9555 6.4596 104° East  Level FlightAware Approximate
Thu 06:34:00 PM 44.9220 6.6404 105° East  Level FlightAware Approximate
Thu 06:35:00 PM 44.8882 6.8211 105° East  Level FlightAware Approximate
Thu 06:36:00 PM 44.8541 7.0015 105° East  Level FlightAware Approximate
Thu 06:37:00 PM 44.8197 7.1817 105° East  Level FlightAware Approximate
Thu 06:38:00 PM 44.7851 7.3617 105° East  Level FlightAware Approximate
Thu 06:39:00 PM 44.7501 7.5415 105° East  Level FlightAware Approximate
Thu 06:40:00 PM 44.7149 7.7211 105° East  Level FlightAware Approximate
Thu 06:41:00 PM 44.6794 7.9005 105° East  Level FlightAware Approximate
Thu 06:42:00 PM 44.6436 8.0796 106° East  Level FlightAware Approximate
Thu 06:43:00 PM 44.6076 8.2585 106° East  Level FlightAware Approximate
Thu 06:44:00 PM 44.5712 8.4372 106° East  Level FlightAware Approximate
Thu 06:45:00 PM 44.5346 8.6156 106° East  Level FlightAware Approximate
Thu 06:46:00 PM 44.4977 8.7939 106° East  Level FlightAware Approximate
Thu 06:47:00 PM 44.4605 8.9719 106° East  Level FlightAware Approximate
Thu 06:48:00 PM 44.4231 9.1497 106° East  Level FlightAware Approximate
Thu 06:49:00 PM 44.3854 9.3272 106° East  Level FlightAware Approximate
Thu 06:50:00 PM 44.3474 9.5045 107° East  Level FlightAware Approximate
Thu 06:51:00 PM 44.3091 9.6816 107° East  Level FlightAware Approximate
Thu 06:52:00 PM 44.2706 9.8585 107° East  Level FlightAware Approximate
Thu 06:53:00 PM 44.2318 10.0351 107° East  Level FlightAware Approximate
Thu 06:54:00 PM 44.1927 10.2115 107° East  Level FlightAware Approximate
Thu 06:55:00 PM 44.1533 10.3877 107° East  Level FlightAware Approximate
Thu 06:56:00 PM 44.1137 10.5636 107° East  Level FlightAware Approximate
Thu 06:57:00 PM 44.0738 10.7393 107° East  Level FlightAware Approximate
Thu 06:58:00 PM 44.0336 10.9148 108° East  Level FlightAware Approximate
Thu 06:59:00 PM 43.9932 11.0900 108° East  Level FlightAware Approximate
Thu 07:00:00 PM 43.9525 11.2649 108° East  Level FlightAware Approximate
Thu 07:01:00 PM 43.9115 11.4397 108° East  Level FlightAware Approximate
Thu 07:02:00 PM 43.8703 11.6142 108° East  Level FlightAware Approximate
Thu 07:03:00 PM 43.8288 11.7884 108° East  Level FlightAware Approximate
Thu 07:04:00 PM 43.7870 11.9624 108° East  Level FlightAware Approximate
Thu 07:05:00 PM 43.7449 12.1362 108° East  Level FlightAware Approximate
Thu 07:06:00 PM 43.7027 12.3097 109° East  Level FlightAware Approximate
Thu 07:07:00 PM 43.6601 12.4830 109° East  Level FlightAware Approximate
Thu 07:08:00 PM 43.6173 12.6560 109° East  Level FlightAware Approximate
Thu 07:09:00 PM 43.5742 12.8288 109° East  Level FlightAware Approximate
Thu 07:10:00 PM 43.5309 13.0013 109° East  Level FlightAware Approximate
Thu 07:11:00 PM 43.4873 13.1736 109° East  Level FlightAware Approximate
Thu 07:12:00 PM 43.4434 13.3456 109° East  Level FlightAware Approximate
Thu 07:13:00 PM 43.3993 13.5174 109° East  Level FlightAware Approximate
Thu 07:14:00 PM 43.3550 13.6890 110° East  Level FlightAware Approximate
Thu 07:15:00 PM 43.3103 13.8603 110° East  Level FlightAware Approximate
Thu 07:16:00 PM 43.2655 14.0313 110° East  Level FlightAware Approximate
Thu 07:17:00 PM 43.2203 14.2021 110° East  Level FlightAware Approximate
Thu 07:18:00 PM 43.1749 14.3726 110° East  Level FlightAware Approximate
Thu 07:19:00 PM 43.1293 14.5429 110° East  Level FlightAware Approximate
Thu 07:20:00 PM 43.0834 14.7129 110° East  Level FlightAware Approximate
Thu 07:21:00 PM 43.0373 14.8826 110° East  Level FlightAware Approximate
Thu 07:22:00 PM 42.9909 15.0521 110° East  Level FlightAware Approximate
Thu 07:23:00 PM 42.9442 15.2214 111° Southeast  Level FlightAware Approximate
Thu 07:24:00 PM 42.8974 15.3904 111° Southeast  Level FlightAware Approximate
Thu 07:25:00 PM 42.8502 15.5591 111° Southeast  Level FlightAware Approximate
Thu 07:26:00 PM 42.8028 15.7276 111° Southeast  Level FlightAware Approximate
Thu 07:27:00 PM 42.7552 15.8958 111° Southeast  Level FlightAware Approximate
Thu 07:28:00 PM 42.7073 16.0638 111° Southeast  Level FlightAware Approximate
Thu 07:29:00 PM 42.6592 16.2315 111° Southeast  Level FlightAware Approximate
Thu 07:30:00 PM 42.6108 16.3989 111° Southeast  Level FlightAware Approximate
Thu 07:31:00 PM 42.5622 16.5661 111° Southeast  Level FlightAware Approximate
Thu 07:32:00 PM 42.5133 16.7330 112° Southeast  Level FlightAware Approximate
Thu 07:33:00 PM 42.4642 16.8997 112° Southeast  Level FlightAware Approximate
Thu 07:34:00 PM 42.4149 17.0661 112° Southeast  Level FlightAware Approximate
Thu 07:35:00 PM 42.3653 17.2322 112° Southeast  Level FlightAware Approximate
Thu 07:36:00 PM 42.3156 17.3981 112° Southeast  Level FlightAware Approximate
Thu 07:37:00 PM 42.2656 17.5638 112° Southeast  Level FlightAware Approximate
Thu 07:38:00 PM 42.2154 17.7292 112° Southeast  Level FlightAware Approximate
Thu 07:39:00 PM 42.1649 17.8943 112° Southeast  Level FlightAware Approximate
Thu 07:40:00 PM 42.1142 18.0591 112° Southeast  Level FlightAware Approximate
Thu 07:41:00 PM 42.0633 18.2237 113° Southeast  Level FlightAware Approximate
Thu 07:42:00 PM 42.0121 18.3881 113° Southeast  Level FlightAware Approximate
Thu 07:43:00 PM 41.9608 18.5521 113° Southeast  Level FlightAware Approximate
Thu 07:44:00 PM 41.9091 18.7159 113° Southeast  Level FlightAware Approximate
Thu 07:45:00 PM 41.8573 18.8795 113° Southeast  Level FlightAware Approximate
Thu 07:46:00 PM 41.8052 19.0427 113° Southeast  Level FlightAware Approximate
Thu 07:47:00 PM 41.7528 19.2057 113° Southeast  Level FlightAware Approximate
Thu 07:48:00 PM 41.7003 19.3685 113° Southeast  Level FlightAware Approximate
Thu 07:49:00 PM 41.6475 19.5310 113° Southeast  Level FlightAware Approximate
Thu 07:50:00 PM 41.5945 19.6932 114° Southeast  Level FlightAware Approximate
Thu 07:51:00 PM 41.5413 19.8551 114° Southeast  Level FlightAware Approximate
Thu 07:52:00 PM 41.4878 20.0168 114° Southeast  Level FlightAware Approximate
Thu 07:53:00 PM 41.4341 20.1782 114° Southeast  Level FlightAware Approximate
Thu 07:54:00 PM 41.3802 20.3393 114° Southeast  Level FlightAware Approximate
Thu 07:55:00 PM 41.3261 20.5002 114° Southeast  Level FlightAware Approximate
Thu 07:56:00 PM 41.2717 20.6608 114° Southeast  Level FlightAware Approximate
Thu 07:57:00 PM 41.2171 20.8211 114° Southeast  Level FlightAware Approximate
Thu 07:58:00 PM 41.1623 20.9812 114° Southeast  Level FlightAware Approximate
Thu 07:59:00 PM 41.1073 21.1410 115° Southeast  Level FlightAware Approximate
Thu 08:00:00 PM 41.0520 21.3005 115° Southeast  Level FlightAware Approximate
Thu 08:01:00 PM 40.9966 21.4598 115° Southeast  Level FlightAware Approximate
Thu 08:02:00 PM 40.9409 21.6188 115° Southeast  Level FlightAware Approximate
Thu 08:03:00 PM 40.8850 21.7775 115° Southeast  Level FlightAware Approximate
Thu 08:04:00 PM 40.8288 21.9360 115° Southeast  Level FlightAware Approximate
Thu 08:05:00 PM 40.7725 22.0942 115° Southeast  Level FlightAware Approximate
Thu 08:06:00 PM 40.7160 22.2521 115° Southeast  Level FlightAware Approximate
Thu 08:07:00 PM 40.6592 22.4097 115° Southeast  Level FlightAware Approximate
Thu 08:08:00 PM 40.6022 22.5671 115° Southeast  Level FlightAware Approximate
Thu 08:09:00 PM 40.5450 22.7242 116° Southeast  Level FlightAware Approximate
Thu 08:10:00 PM 40.4876 22.8811 116° Southeast  Level FlightAware Approximate
Thu 08:11:00 PM 40.4184 23.0272 133° Southeast  Level FlightAware Approximate
Thu 08:12:00 PM 40.3275 23.1534 133° Southeast  Level FlightAware Approximate
Thu 08:13:00 PM 40.2364 23.2792 133° Southeast  Level FlightAware Approximate
Thu 08:14:00 PM 40.1451 23.4047 134° Southeast  Level FlightAware Approximate
Thu 08:15:00 PM 40.0537 23.5298 134° Southeast  Level FlightAware Approximate
Thu 08:16:00 PM 39.9622 23.6546 134° Southeast  Level FlightAware Approximate
Thu 08:17:00 PM 39.8706 23.7791 134° Southeast  Level FlightAware Approximate
Thu 08:18:00 PM 39.7788 23.9033 134° Southeast  Level FlightAware Approximate
Thu 08:19:00 PM 39.6869 24.0271 134° Southeast  Level FlightAware Approximate
Thu 08:20:00 PM 39.5949 24.1506 134° Southeast  Level FlightAware Approximate
Thu 08:21:00 PM 39.5027 24.2737 134° Southeast  Level FlightAware Approximate
Thu 08:22:00 PM 39.4104 24.3966 134° Southeast  Level FlightAware Approximate
Thu 08:23:00 PM 39.3180 24.5191 134° Southeast  Level FlightAware Approximate
Thu 08:24:00 PM 39.2254 24.6413 134° Southeast  Level FlightAware Approximate
Thu 08:25:00 PM 39.1327 24.7631 134° Southeast  Level FlightAware Approximate
Thu 08:26:00 PM 39.0399 24.8847 134° Southeast  Level FlightAware Approximate
Thu 08:27:00 PM 38.9470 25.0059 135° Southeast  Level FlightAware Approximate
Thu 08:28:00 PM 38.8539 25.1268 135° Southeast  Level FlightAware Approximate
Thu 08:29:00 PM 38.7607 25.2474 135° Southeast  Level FlightAware Approximate
Thu 08:30:00 PM 38.6674 25.3676 135° Southeast  Level FlightAware Approximate
Thu 08:31:00 PM 38.5740 25.4876 135° Southeast  Level FlightAware Approximate
Thu 08:32:00 PM 38.4804 25.6073 135° Southeast  Level FlightAware Approximate
Thu 08:33:00 PM 38.3868 25.7266 135° Southeast  Level FlightAware Approximate
Thu 08:34:00 PM 38.2930 25.8456 135° Southeast  Level FlightAware Approximate
Thu 08:35:00 PM 38.1972 25.9618 137° Southeast  Level FlightAware Approximate
Thu 08:36:00 PM 38.0997 26.0756 137° Southeast  Level FlightAware Approximate
Thu 08:37:00 PM 38.0021 26.1891 137° Southeast  Level FlightAware Approximate
Thu 08:38:00 PM 37.9044 26.3023 138° Southeast  Level FlightAware Approximate
Thu 08:39:00 PM 37.8066 26.4152 138° Southeast  Level FlightAware Approximate
Thu 08:40:00 PM 37.7087 26.5278 138° Southeast  Level FlightAware Approximate
Thu 08:41:00 PM 37.6106 26.6401 138° Southeast  Level FlightAware Approximate
Thu 08:42:00 PM 37.5125 26.7521 138° Southeast  Level FlightAware Approximate
Thu 08:43:00 PM 37.4143 26.8639 138° Southeast  Level FlightAware Approximate
Thu 08:44:00 PM 37.3159 26.9753 138° Southeast  Level FlightAware Approximate
Thu 08:45:00 PM 37.2175 27.0864 138° Southeast  Level FlightAware Approximate
Thu 08:46:00 PM 37.1189 27.1973 138° Southeast  Level FlightAware Approximate
Thu 08:47:00 PM 37.0203 27.3078 138° Southeast  Level FlightAware Approximate
Thu 08:48:00 PM 36.9215 27.4181 138° Southeast  Level FlightAware Approximate
Thu 08:49:00 PM 36.8227 27.5280 138° Southeast  Level FlightAware Approximate
Thu 08:50:00 PM 36.7237 27.6378 138° Southeast  Level FlightAware Approximate
Thu 08:51:00 PM 36.6246 27.7472 138° Southeast  Level FlightAware Approximate
Thu 08:52:00 PM 36.5255 27.8563 138° Southeast  Level FlightAware Approximate
Thu 08:53:00 PM 36.4262 27.9651 139° Southeast  Level FlightAware Approximate
Thu 08:54:00 PM 36.3283 28.0753 126° Southeast  Level FlightAware Approximate
Thu 08:55:00 PM 36.2504 28.2080 126° Southeast  Level FlightAware Approximate
Thu 08:56:00 PM 36.1723 28.3405 126° Southeast  Level FlightAware Approximate
Thu 08:57:00 PM 36.0941 28.4727 126° Southeast  Level FlightAware Approximate
Thu 08:58:00 PM 36.0157 28.6046 126° Southeast  Level FlightAware Approximate
Thu 08:59:00 PM 35.9372 28.7362 126° Southeast  Level FlightAware Approximate
Thu 09:00:00 PM 35.8586 28.8676 126° Southeast  Level FlightAware Approximate
Thu 09:01:00 PM 35.7798 28.9988 126° Southeast  Level FlightAware Approximate
Thu 09:02:00 PM 35.7009 29.1296 127° Southeast  Level FlightAware Approximate
Thu 09:03:00 PM 35.6218 29.2602 127° Southeast  Level FlightAware Approximate
Thu 09:04:00 PM 35.5426 29.3906 127° Southeast  Level FlightAware Approximate
Thu 09:05:00 PM 35.4632 29.5207 127° Southeast  Level FlightAware Approximate
Thu 09:06:00 PM 35.3838 29.6505 127° Southeast  Level FlightAware Approximate
Thu 09:07:00 PM 35.3041 29.7801 127° Southeast  Level FlightAware Approximate
Thu 09:08:00 PM 35.2244 29.9095 127° Southeast  Level FlightAware Approximate
Thu 09:09:00 PM 35.1445 30.0385 127° Southeast  Level FlightAware Approximate
Thu 09:10:00 PM 35.0644 30.1674 127° Southeast  Level FlightAware Approximate
Thu 09:11:00 PM 34.9842 30.2959 127° Southeast  Level FlightAware Approximate
Thu 09:12:00 PM 34.9039 30.4242 127° Southeast  Level FlightAware Approximate
Thu 09:13:00 PM 34.8235 30.5523 127° Southeast  Level FlightAware Approximate
Thu 09:14:00 PM 34.7429 30.6801 127° Southeast  Level FlightAware Approximate
Thu 09:15:00 PM 34.6622 30.8077 128° Southeast  Level FlightAware Approximate
Thu 09:16:00 PM 34.5814 30.9350 128° Southeast  Level FlightAware Approximate
Thu 09:17:00 PM 34.5004 31.0621 128° Southeast  Level FlightAware Approximate
Thu 09:18:00 PM 34.4193 31.1889 128° Southeast  Level FlightAware Approximate
Thu 09:19:00 PM 34.3380 31.3155 128° Southeast  Level FlightAware Approximate
Thu 09:20:00 PM 34.2567 31.4418 128° Southeast  Level FlightAware Approximate
Thu 09:21:00 PM 34.1752 31.5679 128° Southeast  Level FlightAware Approximate
Thu 09:22:00 PM 34.0935 31.6938 128° Southeast  Level FlightAware Approximate
Thu 09:23:00 PM 34.0118 31.8194 128° Southeast  Level FlightAware Approximate
Thu 09:24:00 PM 33.9299 31.9447 128° Southeast  Level FlightAware Approximate
Thu 09:25:00 PM 33.8479 32.0699 128° Southeast  Level FlightAware Approximate
Thu 09:26:00 PM 33.7673 32.1962 128° Southeast  Level FlightAware Approximate
Thu 09:27:00 PM 33.6865 32.3222 128° Southeast  Level FlightAware Approximate
Thu 09:28:00 PM 33.6055 32.4479 128° Southeast  Level FlightAware Approximate
Thu 09:29:00 PM 33.5245 32.5735 128° Southeast  Level FlightAware Approximate
Thu 09:30:00 PM 33.4433 32.6988 128° Southeast  Level FlightAware Approximate
Thu 09:31:00 PM 33.3620 32.8239 128° Southeast  Level FlightAware Approximate
Thu 09:32:00 PM 33.2809 32.9490 128° Southeast  Level FlightAware Approximate
Thu 09:33:00 PM 33.1996 33.0739 128° Southeast  Level FlightAware Approximate
Thu 09:34:00 PM 33.1104 33.1896 140° Southeast  Level FlightAware Approximate
Thu 09:35:00 PM 33.0310 33.3153 126° Southeast  Level FlightAware Approximate
Thu 09:36:00 PM 32.9539 33.4435 126° Southeast  Level FlightAware Approximate
Thu 09:37:00 PM 32.8705 33.5659 129° Southeast  Level FlightAware Approximate
Thu 09:38:00 PM 32.7866 33.6877 129° Southeast  Level FlightAware Approximate
Thu 09:39:00 PM 32.7019 33.8086 130° Southeast  Level FlightAware Approximate
Thu 09:40:00 PM 32.6167 33.9289 130° Southeast  Level FlightAware Approximate
Thu 09:41:00 PM 32.5315 34.0490 130° Southeast  Level FlightAware Approximate
Thu 09:42:00 PM 32.4580 34.1771 135° Southeast  Level FlightAware Approximate
Thu 09:43:00 PM 32.3680 34.2916 126° Southeast  Level FlightAware Approximate
Thu 09:44:00 PM 32.2901 34.4183 126° Southeast  Level FlightAware Approximate
Thu 09:45:00 PM 32.2103 34.5430 128° Southeast  Level FlightAware Approximate
Thu 09:46:00 PM 32.1298 34.6670 125° Southeast  Level FlightAware Approximate
Thu 09:47:00 PM 32.0469 34.7885 125° Southeast  Level FlightAware Approximate
Thu 09:48:00 PM 32.0000 34.8667 125° Southeast  Level FlightAware Approximate
Thu 09:49:00 PM 32.0095 34.8769 125° Southeast  Level Estimated
Thu 09:50:00 PM 32.0095 34.8769 125° Southeast  Level Estimated
Thu 09:51:00 PM 32.0095 34.8769 125° Southeast  Level Estimated
Thu 09:52:00 PM 32.0095 34.8769 125° Southeast  Level Estimated
Thu 09:53:00 PM 32.0095 34.8769 125° Southeast  Level Estimated
Thu 09:54:00 PM 32.0095 34.8769 125° Southeast  Level Estimated
Thu 09:55:00 PM 32.0095 34.8769 125° Southeast  Level Estimated

Login

Don't have an account? Register now (free) for customized features, flight alerts, and more!